Aeroporto :
LOGIN :

Iscrizione | Disclaimer

   EN    FR    IT 

 










Sommario :    VFR   VFR Marginale   IFR   IFR Intensivo   IFR Molto Intensivo
Visibilità : 
Base nubi : 
>= 8 km
>= 3000ft
5 / 8 km
1000 / 3000 ft
1500m / 5 km
500 / 1000 ft
800 / 1500m
200 / 500 ft
< 800m
< 200 ft
Simboli :   Temporali  Nebbia  Neve Forte  Precipitazioni Forti  Vento > 20 kt
SIGMETs :   Varie  Temporali  Ghiacco  Turbolenza  Onda orograficha  Ceneri Vulcaniche






- Altitudine del aeroporto : 204 ft
- Codice IATA : AGF


LFBA - Agen

ULTIMO METAR :
  • 141830Z AUTO 17002KT 9999 SCT041 SCT056 OVC066 05/03 Q0998 TEMPO 3000 -RA

METARs OBSOLETI :
  • 141800Z AUTO VRB03KT 9999 SCT042 BKN049 BKN230 06/03 Q0998 NOSIG
  • 141730Z AUTO VRB03KT 9999 BKN041 OVC047 07/04 Q0997 NOSIG
  • 141700Z AUTO VRB02KT 9999 SCT023 SCT046 BKN058 07/03 Q0997 NOSIG
  • 141630Z AUTO 25004KT 190V290 9999 BKN020 OVC066 08/04 Q0998 NOSIG
  • 141600Z AUTO 23003KT 180V260 9999 BKN021 BKN027 OVC072 08/04 Q0998 NOSIG

TAF TAF LFBA
Valido dal 14 a 18 ore il 15 a 03 ore UTC


141700Z 1418/1503 24007KT 9999 BKN025
PROB30
TEMPO 1420/1424 3000 -RA BKN015



MetMap, La meteo Aeronautica in un colpo d'occhio ! - Copyright ORBIFLY Dicembre 2007 - Disclaimer

ORBIFLY MET'MAP TEAM :

Programmazione e sviluppo : Alexandra Zaïnal
Concezione e sviluppo : Baudouin d'Aumeries
Co-Programmazione e sviluppo : Marc-Olivier Méhu
Supporto tecnico e logistico : Manuel Goepfert
Aiuto per la traduzione : Arnaldo La Scala

Contatto : metmap@orbifly.com




FONTI E CREDITI :

   NOAA